createdAt,value
2022-10-26T00:44:58.555Z,-145.18
2022-10-26T00:47:40.911Z,-145.18
2022-10-26T00:52:52.341Z,-145.18
2022-10-26T00:55:31.543Z,-145.18
2022-10-26T00:58:10.251Z,-145.18
2022-10-26T01:00:45.004Z,-145.18
2022-10-26T01:03:19.202Z,-145.18
2022-10-26T01:05:58.508Z,-145.18
2022-10-26T01:08:32.510Z,-145.18
2022-10-26T01:11:08.147Z,-145.18
2022-10-26T01:13:43.094Z,-145.18
2022-10-26T01:16:45.987Z,-145.18
2022-10-26T01:22:08.405Z,-145.18
2022-10-26T01:25:00.358Z,-145.18
2022-10-26T01:27:37.820Z,-145.18
2022-10-26T01:30:28.525Z,-145.18
2022-10-26T01:33:27.720Z,-145.18
2022-10-26T01:36:14.780Z,-145.18
2022-10-26T01:38:56.767Z,-145.18
2022-10-26T01:41:34.004Z,-145.18
2022-10-26T12:20:40.545Z,20.89
2022-10-26T12:23:23.121Z,21.43
2022-10-26T12:28:43.522Z,21.28
2022-10-26T12:31:49.710Z,21.12
2022-10-26T12:34:25.717Z,21.02
2022-10-26T12:37:25.218Z,21.26
2022-10-26T12:40:36.580Z,21.79
2022-10-26T12:43:38.713Z,21.71
2022-10-26T12:46:45.097Z,21.32
2022-10-26T12:50:00.873Z,20.78
2022-10-26T12:52:44.895Z,20.83
2022-10-26T12:56:05.339Z,20.72
2022-10-26T12:58:46.140Z,20.56
2022-10-26T13:01:36.202Z,20.36
2022-10-26T13:04:27.304Z,20.28
2022-10-26T13:07:18.276Z,20.00
2022-10-26T13:09:58.353Z,19.61
2022-10-26T13:12:40.768Z,20.39
2022-10-26T13:15:23.713Z,20.04
2022-10-26T13:18:03.492Z,20.08
2022-10-26T13:20:52.654Z,20.20
2022-10-26T13:23:28.246Z,-145.18
2022-10-26T13:26:07.833Z,-145.18
2022-10-26T13:28:50.160Z,-145.18
2022-10-26T13:31:55.673Z,-145.18
2022-10-26T14:06:53.455Z,-145.18
2022-10-26T14:09:31.600Z,-145.18
2022-10-26T14:12:04.909Z,-145.18
2022-10-26T14:14:40.307Z,-145.18
2022-10-26T14:17:21.115Z,-145.18
2022-10-26T14:19:55.756Z,-145.18
2022-10-26T14:22:31.099Z,-145.18
2022-10-26T14:25:06.051Z,-145.18
2022-10-26T14:27:40.683Z,-145.18
2022-10-26T14:30:25.614Z,-145.18
2022-10-26T14:32:59.079Z,-145.18
2022-10-26T14:35:37.058Z,-145.18
2022-10-26T14:38:20.134Z,-145.18
2022-10-26T14:48:37.005Z,-145.18
2022-10-26T14:51:16.863Z,-145.18
2022-10-26T14:53:51.929Z,-145.18
2022-10-26T14:56:31.457Z,-145.18
2022-10-26T14:59:13.152Z,-145.18
2022-10-26T15:01:52.136Z,-145.18
2022-10-26T15:04:34.790Z,-145.18
2022-10-26T15:07:18.461Z,-145.18
2022-10-26T15:09:52.210Z,-145.18
2022-10-26T15:12:32.897Z,-145.18
2022-10-26T17:34:56.518Z,-145.18
2022-10-26T17:40:09.945Z,-145.18
2022-10-26T17:42:44.231Z,-145.18
2022-10-26T17:45:18.127Z,-145.18
2022-10-26T17:47:54.325Z,-145.18
2022-10-26T17:50:28.375Z,-145.18
2022-10-26T17:58:08.895Z,-145.18
2022-10-26T18:00:45.607Z,-145.18
